Home   Weather   USA   Neenah   Past weeks
Flag for USA

Past Weather in Neenah, Wisconsin, USA — Yesterday and Last 2 Weeks

Currently: 41 °F. Mostly cloudy. (Weather station: Appleton / Outagamie, USA). See more current weather

Past Weather in Neenah — Graph

°F

Neenah Temperature Yesterday

Maximum temperature yesterday: 61 °F (at 4:45 pm)
Minimum temperature yesterday: 39 °F (at 12:35 am)
Average temperature yesterday: 46 °F

High & Low Weather Summary for the Past Weeks

 TemperatureHumidityPressure
High79 °F (Apr 6, 2:45 pm)100% (Apr 6, 8:45 am)30.16 "Hg (Apr 6, 8:45 am)
Low32 °F (Apr 14, 5:35 am)13% (Apr 17, 5:45 pm)29.30 "Hg (Apr 11, 3:15 am)
Average50 °F66%29.79 "Hg
* Reported Apr 4 4:15 am — Apr 19 4:15 am, Neenah. Weather by CustomWeather, © 2021

Note: Actual official high and low records may vary slightly from our data, if they occured in-between our weather recording intervals... More about our weather records

Neenah Weather History for the Previous 24 Hours

Scroll right to see more
 ConditionsComfort  
Time TempWeatherWind HumidityBarometerVisibility
4:15 am
Mon, Apr 19
43 °FOvercast.22 mph71%29.69 "Hg10 mi
3:35 am45 °FOvercast.15 mph71%29.67 "Hg10 mi
3:15 am45 °FMostly cloudy.8 mph76%29.67 "Hg10 mi
2:35 am46 °FLight rain. Overcast.15 mph62%29.68 "Hg10 mi
2:15 am46 °FMostly cloudy.10 mph50%29.69 "Hg10 mi
1:35 am46 °FOvercast.8 mph43%29.68 "Hg10 mi
1:15 am48 °FMostly cloudy.10 mph37%29.68 "Hg10 mi
12:35 am48 °FOvercast.9 mph37%29.67 "Hg10 mi
12:15 am46 °FPartly cloudy.8 mph40%29.67 "Hg10 mi
11:35 pm
Sun, Apr 18
45 °FClear.9 mph46%29.68 "Hg10 mi
11:15 pm43 °FClear.7 mph49%29.70 "Hg10 mi
9:45 pm46 °FPassing clouds.6 mph62%29.72 "Hg10 mi
8:45 pm48 °FPassing clouds.6 mph58%29.73 "Hg10 mi
7:45 pm52 °FPartly cloudy.9 mph44%29.73 "Hg10 mi
6:45 pm55 °FBroken clouds.8 mph31%29.75 "Hg10 mi
5:45 pm55 °FBroken clouds.9 mph26%29.76 "Hg10 mi
4:45 pm61 °FPartly sunny.12 mph17%29.77 "Hg10 mi
3:45 pm57 °FPartly sunny.12 mph23%29.78 "Hg10 mi
2:45 pm57 °FPartly sunny.7 mph23%29.80 "Hg10 mi
1:45 pm59 °FPartly sunny.9 mph21%29.82 "Hg10 mi
12:45 pm57 °FPartly sunny.9 mph29%29.84 "Hg10 mi
11:45 am55 °FPartly sunny.9 mph36%29.87 "Hg10 mi
10:45 am50 °FPartly sunny.5 mph37%29.89 "Hg10 mi
9:45 am48 °FPartly sunny.5 mph40%29.90 "Hg10 mi
8:45 am45 °FPartly sunny.5 mph46%29.90 "Hg10 mi
7:45 am41 °FPartly sunny.5 mph45%29.91 "Hg10 mi
6:45 am39 °FPartly sunny.No wind48%29.91 "Hg10 mi
5:45 am39 °FPassing clouds.No wind48%29.90 "Hg10 mi
5:35 am41 °FOvercast.No wind45%29.90 "Hg10 mi
5:15 am41 °FOvercast.5 mph45%29.90 "Hg10 mi
Weather by CustomWeather, © 2021

See weather overview